sensor_id;sensor_type;location;lat;lon;timestamp;pressure;altitude;pressure_sealevel;temperature;humidity
56992;BME280;42885;49.754;18.636;2022-12-18T00:01:53;99749.35;;;-1.23;100.00
56992;BME280;42885;49.754;18.636;2022-12-18T00:04:27;99745.21;;;-1.10;100.00
56992;BME280;42885;49.754;18.636;2022-12-18T00:06:58;99750.43;;;-1.42;100.00
56992;BME280;42885;49.754;18.636;2022-12-18T00:09:29;99749.14;;;-1.42;100.00
56992;BME280;42885;49.754;18.636;2022-12-18T00:12:00;99753.80;;;-1.47;100.00
56992;BME280;42885;49.754;18.636;2022-12-18T00:14:32;99751.02;;;-1.27;100.00
56992;BME280;42885;49.754;18.636;2022-12-18T00:17:03;99761.77;;;-1.24;100.00
56992;BME280;42885;49.754;18.636;2022-12-18T00:19:34;99751.84;;;-1.29;100.00
56992;BME280;42885;49.754;18.636;2022-12-18T00:22:05;99765.16;;;-1.28;100.00
56992;BME280;42885;49.754;18.636;2022-12-18T00:24:36;99768.70;;;-1.17;100.00
56992;BME280;42885;49.754;18.636;2022-12-18T00:27:07;99771.39;;;-1.44;100.00
56992;BME280;42885;49.754;18.636;2022-12-18T00:29:38;99775.23;;;-1.42;100.00
56992;BME280;42885;49.754;18.636;2022-12-18T00:32:09;99774.25;;;-1.54;100.00
56992;BME280;42885;49.754;18.636;2022-12-18T00:34:40;99772.94;;;-1.55;100.00
56992;BME280;42885;49.754;18.636;2022-12-18T00:37:11;99787.52;;;-1.53;100.00
56992;BME280;42885;49.754;18.636;2022-12-18T00:39:42;99783.44;;;-1.38;100.00
56992;BME280;42885;49.754;18.636;2022-12-18T00:42:13;99783.95;;;-1.29;100.00
56992;BME280;42885;49.754;18.636;2022-12-18T00:45:02;99785.43;;;-1.15;100.00
56992;BME280;42885;49.754;18.636;2022-12-18T00:47:34;99785.43;;;-1.15;100.00
56992;BME280;42885;49.754;18.636;2022-12-18T00:50:05;99792.45;;;-1.36;100.00
56992;BME280;42885;49.754;18.636;2022-12-18T00:52:40;99794.31;;;-1.23;100.00
56992;BME280;42885;49.754;18.636;2022-12-18T00:55:12;99803.55;;;-1.39;100.00
56992;BME280;42885;49.754;18.636;2022-12-18T00:57:44;99801.77;;;-1.45;100.00
56992;BME280;42885;49.754;18.636;2022-12-18T01:00:15;99802.43;;;-1.25;100.00
56992;BME280;42885;49.754;18.636;2022-12-18T01:02:46;99814.87;;;-1.23;100.00
56992;BME280;42885;49.754;18.636;2022-12-18T01:05:17;99815.11;;;-1.39;100.00
56992;BME280;42885;49.754;18.636;2022-12-18T01:07:48;99812.04;;;-1.45;100.00
56992;BME280;42885;49.754;18.636;2022-12-18T01:10:20;99816.47;;;-1.31;100.00
56992;BME280;42885;49.754;18.636;2022-12-18T01:12:51;99819.07;;;-1.30;100.00
56992;BME280;42885;49.754;18.636;2022-12-18T01:15:22;99824.88;;;-1.43;100.00
56992;BME280;42885;49.754;18.636;2022-12-18T01:17:53;99819.59;;;-1.22;100.00
56992;BME280;42885;49.754;18.636;2022-12-18T01:20:25;99818.39;;;-1.16;100.00
56992;BME280;42885;49.754;18.636;2022-12-18T01:22:56;99817.29;;;-1.34;100.00
56992;BME280;42885;49.754;18.636;2022-12-18T01:25:27;99817.61;;;-1.42;100.00
56992;BME280;42885;49.754;18.636;2022-12-18T01:27:58;99821.84;;;-1.46;100.00
56992;BME280;42885;49.754;18.636;2022-12-18T01:30:29;99828.03;;;-1.33;100.00
56992;BME280;42885;49.754;18.636;2022-12-18T01:33:00;99831.48;;;-1.31;100.00
56992;BME280;42885;49.754;18.636;2022-12-18T01:35:31;99833.55;;;-1.35;100.00
56992;BME280;42885;49.754;18.636;2022-12-18T01:38:02;99839.70;;;-1.22;100.00
56992;BME280;42885;49.754;18.636;2022-12-18T01:40:33;99839.00;;;-1.10;100.00
56992;BME280;42885;49.754;18.636;2022-12-18T01:43:04;99834.77;;;-1.06;100.00
56992;BME280;42885;49.754;18.636;2022-12-18T01:45:35;99842.25;;;-1.25;100.00
56992;BME280;42885;49.754;18.636;2022-12-18T01:48:08;99844.44;;;-1.21;100.00
56992;BME280;42885;49.754;18.636;2022-12-18T01:50:41;99847.80;;;-1.27;100.00
56992;BME280;42885;49.754;18.636;2022-12-18T01:53:19;99848.58;;;-1.31;100.00
56992;BME280;42885;49.754;18.636;2022-12-18T01:55:53;99852.02;;;-1.29;100.00
56992;BME280;42885;49.754;18.636;2022-12-18T02:01:07;99858.92;;;-1.28;100.00
56992;BME280;42885;49.754;18.636;2022-12-18T02:03:41;99851.13;;;-1.34;100.00
56992;BME280;42885;49.754;18.636;2022-12-18T02:14:30;99872.03;;;-1.08;100.00
56992;BME280;42885;49.754;18.636;2022-12-18T02:17:10;99873.23;;;-1.14;100.00
56992;BME280;42885;49.754;18.636;2022-12-18T02:19:55;99876.31;;;-1.39;100.00
56992;BME280;42885;49.754;18.636;2022-12-18T02:25:20;99879.31;;;-1.37;100.00
56992;BME280;42885;49.754;18.636;2022-12-18T02:27:45;99870.58;;;-1.79;100.00
56992;BME280;42885;49.754;18.636;2022-12-18T02:30:18;99874.45;;;-1.49;100.00
56992;BME280;42885;49.754;18.636;2022-12-18T02:32:51;99876.69;;;-1.71;100.00
56992;BME280;42885;49.754;18.636;2022-12-18T02:35:26;99884.59;;;-1.58;100.00
56992;BME280;42885;49.754;18.636;2022-12-18T02:37:58;99884.92;;;-1.35;100.00
56992;BME280;42885;49.754;18.636;2022-12-18T02:40:31;99888.77;;;-1.36;100.00
56992;BME280;42885;49.754;18.636;2022-12-18T02:43:08;99892.63;;;-1.36;100.00
56992;BME280;42885;49.754;18.636;2022-12-18T02:45:52;99890.66;;;-1.82;100.00
56992;BME280;42885;49.754;18.636;2022-12-18T02:48:34;99891.77;;;-1.92;100.00
56992;BME280;42885;49.754;18.636;2022-12-18T02:51:30;99892.02;;;-1.75;100.00
56992;BME280;42885;49.754;18.636;2022-12-18T02:54:03;99896.19;;;-1.55;100.00
56992;BME280;42885;49.754;18.636;2022-12-18T02:56:41;99900.30;;;-1.38;100.00
56992;BME280;42885;49.754;18.636;2022-12-18T02:59:09;99897.44;;;-1.58;100.00
56992;BME280;42885;49.754;18.636;2022-12-18T03:02:02;99898.98;;;-1.41;100.00
56992;BME280;42885;49.754;18.636;2022-12-18T03:07:27;99904.02;;;-1.46;100.00
56992;BME280;42885;49.754;18.636;2022-12-18T03:09:55;99909.70;;;-1.39;100.00
56992;BME280;42885;49.754;18.636;2022-12-18T03:12:32;99904.93;;;-1.44;100.00
56992;BME280;42885;49.754;18.636;2022-12-18T03:15:34;99907.60;;;-1.36;100.00
56992;BME280;42885;49.754;18.636;2022-12-18T03:18:16;99909.39;;;-1.59;100.00
56992;BME280;42885;49.754;18.636;2022-12-18T03:20:45;99910.50;;;-1.71;100.00
56992;BME280;42885;49.754;18.636;2022-12-18T03:23:22;99920.88;;;-1.65;100.00
56992;BME280;42885;49.754;18.636;2022-12-18T03:25:56;99924.27;;;-1.39;100.00
56992;BME280;42885;49.754;18.636;2022-12-18T03:28:30;99925.17;;;-1.35;100.00
56992;BME280;42885;49.754;18.636;2022-12-18T03:31:05;99925.14;;;-1.37;100.00
56992;BME280;42885;49.754;18.636;2022-12-18T03:34:03;99923.83;;;-1.39;100.00
56992;BME280;42885;49.754;18.636;2022-12-18T03:36:32;99923.34;;;-1.71;100.00
56992;BME280;42885;49.754;18.636;2022-12-18T03:39:04;99930.52;;;-1.77;100.00
56992;BME280;42885;49.754;18.636;2022-12-18T03:41:53;99931.73;;;-1.80;100.00
56992;BME280;42885;49.754;18.636;2022-12-18T03:47:16;99926.92;;;-1.31;100.00
56992;BME280;42885;49.754;18.636;2022-12-18T03:52:36;99928.66;;;-1.32;100.00
56992;BME280;42885;49.754;18.636;2022-12-18T03:55:09;99931.45;;;-1.43;100.00
56992;BME280;42885;49.754;18.636;2022-12-18T03:57:42;99932.67;;;-1.49;100.00
56992;BME280;42885;49.754;18.636;2022-12-18T04:00:17;99939.98;;;-1.46;100.00
56992;BME280;42885;49.754;18.636;2022-12-18T04:02:57;99940.59;;;-1.34;100.00
56992;BME280;42885;49.754;18.636;2022-12-18T04:05:33;99947.78;;;-1.41;100.00
56992;BME280;42885;49.754;18.636;2022-12-18T04:08:06;99951.64;;;-1.40;100.00
56992;BME280;42885;49.754;18.636;2022-12-18T04:10:39;99962.90;;;-1.85;100.00
56992;BME280;42885;49.754;18.636;2022-12-18T04:13:10;99969.96;;;-1.96;100.00
56992;BME280;42885;49.754;18.636;2022-12-18T04:15:41;99962.47;;;-1.59;100.00
56992;BME280;42885;49.754;18.636;2022-12-18T04:18:14;99959.67;;;-1.46;100.00
56992;BME280;42885;49.754;18.636;2022-12-18T04:20:45;99959.80;;;-1.66;100.00
56992;BME280;42885;49.754;18.636;2022-12-18T04:23:17;99972.61;;;-1.92;100.00
56992;BME280;42885;49.754;18.636;2022-12-18T04:25:48;99966.13;;;-1.70;100.00
56992;BME280;42885;49.754;18.636;2022-12-18T04:28:21;99967.11;;;-1.36;100.00
56992;BME280;42885;49.754;18.636;2022-12-18T04:30:52;99975.05;;;-1.49;100.00
56992;BME280;42885;49.754;18.636;2022-12-18T04:33:25;99981.54;;;-1.45;100.00
56992;BME280;42885;49.754;18.636;2022-12-18T04:35:56;99985.39;;;-1.43;100.00
56992;BME280;42885;49.754;18.636;2022-12-18T04:38:27;99984.83;;;-1.25;100.00
56992;BME280;42885;49.754;18.636;2022-12-18T04:41:00;99983.07;;;-1.28;100.00
56992;BME280;42885;49.754;18.636;2022-12-18T04:43:32;99979.25;;;-1.26;100.00
56992;BME280;42885;49.754;18.636;2022-12-18T04:46:04;99988.78;;;-1.19;100.00
56992;BME280;42885;49.754;18.636;2022-12-18T04:48:36;99998.38;;;-1.35;100.00
56992;BME280;42885;49.754;18.636;2022-12-18T04:51:08;100002.45;;;-1.47;100.00
56992;BME280;42885;49.754;18.636;2022-12-18T04:53:38;100002.70;;;-1.31;100.00
56992;BME280;42885;49.754;18.636;2022-12-18T04:56:14;100005.68;;;-1.33;100.00
56992;BME280;42885;49.754;18.636;2022-12-18T04:58:46;100003.59;;;-1.58;100.00
56992;BME280;42885;49.754;18.636;2022-12-18T05:01:18;100004.98;;;-1.50;100.00
56992;BME280;42885;49.754;18.636;2022-12-18T05:03:50;100012.33;;;-1.46;100.00
56992;BME280;42885;49.754;18.636;2022-12-18T05:06:22;100016.44;;;-1.82;100.00
56992;BME280;42885;49.754;18.636;2022-12-18T05:08:53;100014.83;;;-1.99;100.00
56992;BME280;42885;49.754;18.636;2022-12-18T05:11:23;100017.59;;;-1.64;100.00
56992;BME280;42885;49.754;18.636;2022-12-18T05:13:54;100022.70;;;-1.39;100.00
56992;BME280;42885;49.754;18.636;2022-12-18T05:16:25;100025.55;;;-1.74;100.00
56992;BME280;42885;49.754;18.636;2022-12-18T05:18:56;100024.20;;;-1.53;100.00
56992;BME280;42885;49.754;18.636;2022-12-18T05:21:27;100028.42;;;-1.57;100.00
56992;BME280;42885;49.754;18.636;2022-12-18T05:23:58;100034.13;;;-1.72;100.00
56992;BME280;42885;49.754;18.636;2022-12-18T05:26:29;100035.09;;;-1.67;100.00
56992;BME280;42885;49.754;18.636;2022-12-18T05:29:00;100031.59;;;-1.70;100.00
56992;BME280;42885;49.754;18.636;2022-12-18T05:31:31;100041.13;;;-1.37;100.00
56992;BME280;42885;49.754;18.636;2022-12-18T05:34:02;100044.63;;;-1.59;100.00
56992;BME280;42885;49.754;18.636;2022-12-18T05:36:34;100045.08;;;-1.58;100.00
56992;BME280;42885;49.754;18.636;2022-12-18T05:39:04;100040.20;;;-1.43;100.00
56992;BME280;42885;49.754;18.636;2022-12-18T05:41:36;100043.80;;;-1.33;100.00
56992;BME280;42885;49.754;18.636;2022-12-18T05:44:07;100039.33;;;-1.45;100.00
56992;BME280;42885;49.754;18.636;2022-12-18T05:46:41;100040.17;;;-1.44;100.00
56992;BME280;42885;49.754;18.636;2022-12-18T05:49:11;100043.23;;;-1.66;100.00
56992;BME280;42885;49.754;18.636;2022-12-18T05:51:41;100042.14;;;-1.02;100.00
56992;BME280;42885;49.754;18.636;2022-12-18T05:54:12;100048.36;;;-1.42;100.00
56992;BME280;42885;49.754;18.636;2022-12-18T05:56:43;100046.34;;;-1.34;100.00
56992;BME280;42885;49.754;18.636;2022-12-18T05:59:14;100047.77;;;-1.50;100.00
56992;BME280;42885;49.754;18.636;2022-12-18T06:01:46;100051.25;;;-1.48;100.00
56992;BME280;42885;49.754;18.636;2022-12-18T06:04:17;100063.45;;;-1.59;100.00
56992;BME280;42885;49.754;18.636;2022-12-18T06:06:48;100063.20;;;-1.73;100.00
56992;BME280;42885;49.754;18.636;2022-12-18T06:09:19;100058.15;;;-1.70;100.00
56992;BME280;42885;49.754;18.636;2022-12-18T06:11:52;100064.11;;;-1.93;100.00
56992;BME280;42885;49.754;18.636;2022-12-18T06:14:23;100066.02;;;-1.59;100.00
56992;BME280;42885;49.754;18.636;2022-12-18T06:16:54;100063.09;;;-1.57;100.00
56992;BME280;42885;49.754;18.636;2022-12-18T06:19:25;100063.02;;;-1.60;100.00
56992;BME280;42885;49.754;18.636;2022-12-18T06:21:56;100064.41;;;-1.77;100.00
56992;BME280;42885;49.754;18.636;2022-12-18T06:24:28;100063.02;;;-1.60;100.00
56992;BME280;42885;49.754;18.636;2022-12-18T06:27:00;100064.02;;;-1.52;100.00
56992;BME280;42885;49.754;18.636;2022-12-18T06:29:31;100067.98;;;-1.69;100.00
56992;BME280;42885;49.754;18.636;2022-12-18T06:32:02;100077.61;;;-1.57;100.00
56992;BME280;42885;49.754;18.636;2022-12-18T06:34:34;100078.30;;;-1.44;100.00
56992;BME280;42885;49.754;18.636;2022-12-18T06:37:05;100080.94;;;-1.63;100.00
56992;BME280;42885;49.754;18.636;2022-12-18T06:39:36;100085.36;;;-1.54;100.00
56992;BME280;42885;49.754;18.636;2022-12-18T06:42:07;100082.38;;;-1.77;100.00
56992;BME280;42885;49.754;18.636;2022-12-18T06:44:38;100082.62;;;-1.63;100.00
56992;BME280;42885;49.754;18.636;2022-12-18T06:47:09;100088.44;;;-1.74;100.00
56992;BME280;42885;49.754;18.636;2022-12-18T06:49:40;100081.61;;;-1.73;100.00
56992;BME280;42885;49.754;18.636;2022-12-18T06:52:11;100085.84;;;-1.53;100.00
56992;BME280;42885;49.754;18.636;2022-12-18T06:54:42;100092.80;;;-1.20;100.00
56992;BME280;42885;49.754;18.636;2022-12-18T06:57:13;100093.75;;;-1.41;100.00
56992;BME280;42885;49.754;18.636;2022-12-18T06:59:44;100093.86;;;-1.58;100.00
56992;BME280;42885;49.754;18.636;2022-12-18T07:02:15;100093.78;;;-1.63;100.00
56992;BME280;42885;49.754;18.636;2022-12-18T07:04:46;100105.02;;;-1.56;100.00
56992;BME280;42885;49.754;18.636;2022-12-18T07:07:19;100103.89;;;-1.25;100.00
56992;BME280;42885;49.754;18.636;2022-12-18T07:09:51;100107.20;;;-1.05;100.00
56992;BME280;42885;49.754;18.636;2022-12-18T07:12:22;100102.23;;;-1.19;100.00
56992;BME280;42885;49.754;18.636;2022-12-18T07:14:53;100123.35;;;-1.12;100.00
56992;BME280;42885;49.754;18.636;2022-12-18T07:17:24;100130.22;;;-1.36;100.00
56992;BME280;42885;49.754;18.636;2022-12-18T07:19:55;100132.80;;;-1.35;100.00
56992;BME280;42885;49.754;18.636;2022-12-18T07:22:26;100133.00;;;-1.70;100.00
56992;BME280;42885;49.754;18.636;2022-12-18T07:24:57;100135.27;;;-1.63;100.00
56992;BME280;42885;49.754;18.636;2022-12-18T07:27:28;100145.34;;;-1.74;100.00
56992;BME280;42885;49.754;18.636;2022-12-18T07:29:59;100139.06;;;-1.67;100.00
56992;BME280;42885;49.754;18.636;2022-12-18T07:32:30;100145.80;;;-1.72;100.00
56992;BME280;42885;49.754;18.636;2022-12-18T07:35:01;100148.00;;;-1.70;100.00
56992;BME280;42885;49.754;18.636;2022-12-18T07:37:32;100146.72;;;-1.90;100.00
56992;BME280;42885;49.754;18.636;2022-12-18T07:40:04;100145.05;;;-1.88;100.00
56992;BME280;42885;49.754;18.636;2022-12-18T07:42:36;100151.59;;;-1.61;100.00
56992;BME280;42885;49.754;18.636;2022-12-18T07:45:07;100154.25;;;-1.55;100.00
56992;BME280;42885;49.754;18.636;2022-12-18T07:47:38;100161.48;;;-1.35;100.00
56992;BME280;42885;49.754;18.636;2022-12-18T07:50:10;100167.27;;;-1.46;100.00
56992;BME280;42885;49.754;18.636;2022-12-18T07:52:42;100177.00;;;-1.53;100.00
56992;BME280;42885;49.754;18.636;2022-12-18T07:55:14;100179.68;;;-1.23;100.00
56992;BME280;42885;49.754;18.636;2022-12-18T07:57:45;100180.09;;;-1.70;100.00
56992;BME280;42885;49.754;18.636;2022-12-18T08:00:16;100173.68;;;-1.47;100.00
56992;BME280;42885;49.754;18.636;2022-12-18T08:02:47;100170.09;;;-1.56;100.00
56992;BME280;42885;49.754;18.636;2022-12-18T08:05:18;100170.65;;;-1.26;100.00
56992;BME280;42885;49.754;18.636;2022-12-18T08:07:50;100169.47;;;-1.44;100.00
56992;BME280;42885;49.754;18.636;2022-12-18T08:10:21;100170.59;;;-1.52;100.00
56992;BME280;42885;49.754;18.636;2022-12-18T08:12:52;100169.20;;;-1.58;100.00
56992;BME280;42885;49.754;18.636;2022-12-18T08:15:23;100170.56;;;-1.31;100.00
56992;BME280;42885;49.754;18.636;2022-12-18T08:17:56;100178.55;;;-1.15;100.00
56992;BME280;42885;49.754;18.636;2022-12-18T08:20:27;100185.14;;;-1.06;100.00
56992;BME280;42885;49.754;18.636;2022-12-18T08:22:58;100183.66;;;-0.93;100.00
56992;BME280;42885;49.754;18.636;2022-12-18T08:25:29;100182.75;;;-1.43;100.00
56992;BME280;42885;49.754;18.636;2022-12-18T08:28:01;100183.16;;;-1.45;100.00
56992;BME280;42885;49.754;18.636;2022-12-18T08:30:32;100182.39;;;-1.39;100.00
56992;BME280;42885;49.754;18.636;2022-12-18T08:33:03;100186.30;;;-1.58;100.00
56992;BME280;42885;49.754;18.636;2022-12-18T08:35:36;100191.48;;;-1.11;100.00
56992;BME280;42885;49.754;18.636;2022-12-18T08:38:07;100192.67;;;-1.39;100.00
56992;BME280;42885;49.754;18.636;2022-12-18T08:40:38;100190.38;;;-1.46;100.00
56992;BME280;42885;49.754;18.636;2022-12-18T08:43:11;100198.48;;;-1.48;100.00
56992;BME280;42885;49.754;18.636;2022-12-18T08:45:59;100193.83;;;-1.45;100.00
56992;BME280;42885;49.754;18.636;2022-12-18T08:48:30;100202.64;;;-1.32;100.00
56992;BME280;42885;49.754;18.636;2022-12-18T08:51:02;100203.41;;;-1.13;100.00
56992;BME280;42885;49.754;18.636;2022-12-18T08:53:33;100205.69;;;-1.30;100.00
56992;BME280;42885;49.754;18.636;2022-12-18T08:56:04;100201.53;;;-1.45;100.00
56992;BME280;42885;49.754;18.636;2022-12-18T08:58:35;100217.86;;;-1.19;100.00
56992;BME280;42885;49.754;18.636;2022-12-18T09:01:09;100214.54;;;-0.90;100.00
56992;BME280;42885;49.754;18.636;2022-12-18T09:03:40;100208.86;;;-0.45;100.00
56992;BME280;42885;49.754;18.636;2022-12-18T09:06:19;100212.06;;;-0.60;99.40
56992;BME280;42885;49.754;18.636;2022-12-18T09:08:48;100216.09;;;-0.74;100.00
56992;BME280;42885;49.754;18.636;2022-12-18T09:11:22;100219.26;;;-0.65;98.21
56992;BME280;42885;49.754;18.636;2022-12-18T09:13:54;100213.16;;;-0.45;97.37
56992;BME280;42885;49.754;18.636;2022-12-18T09:16:27;100225.10;;;-0.49;93.97
56992;BME280;42885;49.754;18.636;2022-12-18T09:19:00;100232.59;;;-0.61;94.55
56992;BME280;42885;49.754;18.636;2022-12-18T09:21:33;100237.07;;;-1.00;97.19
56992;BME280;42885;49.754;18.636;2022-12-18T09:24:05;100228.66;;;-1.15;97.96
56992;BME280;42885;49.754;18.636;2022-12-18T09:26:36;100228.23;;;-1.15;97.97
56992;BME280;42885;49.754;18.636;2022-12-18T09:29:07;100220.64;;;-1.08;97.63
56992;BME280;42885;49.754;18.636;2022-12-18T09:31:39;100227.19;;;-1.01;96.59
56992;BME280;42885;49.754;18.636;2022-12-18T09:34:10;100229.48;;;-0.94;97.69
56992;BME280;42885;49.754;18.636;2022-12-18T09:36:41;100221.52;;;-0.82;97.36
56992;BME280;42885;49.754;18.636;2022-12-18T09:39:12;100219.59;;;-0.44;95.07
56992;BME280;42885;49.754;18.636;2022-12-18T09:41:46;100220.64;;;-0.85;96.84
56992;BME280;42885;49.754;18.636;2022-12-18T09:44:34;100222.66;;;-0.92;96.39
56992;BME280;42885;49.754;18.636;2022-12-18T09:49:47;100219.77;;;-0.33;89.89
56992;BME280;42885;49.754;18.636;2022-12-18T09:54:55;100220.27;;;-0.29;88.34
56992;BME280;42885;49.754;18.636;2022-12-18T09:57:25;100216.11;;;0.45;88.85
56992;BME280;42885;49.754;18.636;2022-12-18T10:00:06;100217.66;;;-0.02;88.34
56992;BME280;42885;49.754;18.636;2022-12-18T10:02:38;100225.25;;;-0.11;87.75
56992;BME280;42885;49.754;18.636;2022-12-18T10:05:20;100224.73;;;-0.44;87.90
56992;BME280;42885;49.754;18.636;2022-12-18T10:10:57;100215.62;;;-1.02;90.37
56992;BME280;42885;49.754;18.636;2022-12-18T10:13:42;100223.66;;;-0.84;92.32
56992;BME280;42885;49.754;18.636;2022-12-18T10:16:31;100212.48;;;-0.86;91.02
56992;BME280;42885;49.754;18.636;2022-12-18T10:19:20;100214.22;;;-0.85;90.64
56992;BME280;42885;49.754;18.636;2022-12-18T10:22:13;100203.88;;;-0.34;85.42
56992;BME280;42885;49.754;18.636;2022-12-18T10:24:40;100195.52;;;0.46;82.56
56992;BME280;42885;49.754;18.636;2022-12-18T10:27:18;100183.69;;;0.26;82.20
56992;BME280;42885;49.754;18.636;2022-12-18T10:29:49;100173.89;;;-0.02;81.10
56992;BME280;42885;49.754;18.636;2022-12-18T10:32:23;100169.70;;;0.07;82.45
56992;BME280;42885;49.754;18.636;2022-12-18T10:34:57;100179.50;;;0.03;84.32
56992;BME280;42885;49.754;18.636;2022-12-18T10:37:29;100183.25;;;0.26;81.99
56992;BME280;42885;49.754;18.636;2022-12-18T10:40:09;100180.75;;;0.33;79.53
56992;BME280;42885;49.754;18.636;2022-12-18T10:42:41;100178.09;;;0.26;77.64
56992;BME280;42885;49.754;18.636;2022-12-18T10:45:16;100179.49;;;0.36;75.76
56992;BME280;42885;49.754;18.636;2022-12-18T10:47:48;100179.16;;;0.44;77.46
56992;BME280;42885;49.754;18.636;2022-12-18T10:50:29;100170.59;;;0.44;75.62
56992;BME280;42885;49.754;18.636;2022-12-18T10:53:01;100170.05;;;0.33;75.58
56992;BME280;42885;49.754;18.636;2022-12-18T10:55:35;100150.20;;;2.86;68.89
56992;BME280;42885;49.754;18.636;2022-12-18T10:58:30;100148.00;;;5.37;57.82
56992;BME280;42885;49.754;18.636;2022-12-18T11:01:12;100137.65;;;5.78;52.40
56992;BME280;42885;49.754;18.636;2022-12-18T11:03:45;100135.06;;;5.75;49.27
56992;BME280;42885;49.754;18.636;2022-12-18T11:06:20;100139.11;;;5.60;50.30
56992;BME280;42885;49.754;18.636;2022-12-18T11:09:18;100129.18;;;6.70;52.90
56992;BME280;42885;49.754;18.636;2022-12-18T11:11:39;100132.41;;;5.82;48.74
56992;BME280;42885;49.754;18.636;2022-12-18T11:14:21;100140.24;;;6.20;48.29
56992;BME280;42885;49.754;18.636;2022-12-18T11:16:48;100134.53;;;5.87;46.24
56992;BME280;42885;49.754;18.636;2022-12-18T11:19:31;100146.25;;;5.39;49.47
56992;BME280;42885;49.754;18.636;2022-12-18T11:22:17;100146.18;;;4.91;50.57
56992;BME280;42885;49.754;18.636;2022-12-18T11:24:36;100136.08;;;5.13;50.42
56992;BME280;42885;49.754;18.636;2022-12-18T11:27:16;100135.69;;;5.05;49.28
56992;BME280;42885;49.754;18.636;2022-12-18T11:29:50;100134.96;;;4.89;49.67
56992;BME280;42885;49.754;18.636;2022-12-18T11:32:43;100134.23;;;5.29;48.17
56992;BME280;42885;49.754;18.636;2022-12-18T11:37:58;100113.86;;;6.48;45.28
56992;BME280;42885;49.754;18.636;2022-12-18T11:40:38;100128.53;;;5.35;47.37
56992;BME280;42885;49.754;18.636;2022-12-18T11:43:28;100131.98;;;4.82;48.81
56992;BME280;42885;49.754;18.636;2022-12-18T11:46:23;100139.04;;;4.60;50.25
56992;BME280;42885;49.754;18.636;2022-12-18T11:48:52;100146.38;;;4.65;51.50
56992;BME280;42885;49.754;18.636;2022-12-18T11:51:33;100141.42;;;6.29;47.03
56992;BME280;42885;49.754;18.636;2022-12-18T11:54:00;100144.31;;;7.01;44.90
56992;BME280;42885;49.754;18.636;2022-12-18T11:56:35;100145.94;;;6.13;47.68
56992;BME280;42885;49.754;18.636;2022-12-18T12:04:48;100146.16;;;7.23;43.22
56992;BME280;42885;49.754;18.636;2022-12-18T12:07:33;100150.79;;;7.04;42.34
56992;BME280;42885;49.754;18.636;2022-12-18T12:12:55;100151.70;;;7.29;41.17
56992;BME280;42885;49.754;18.636;2022-12-18T12:16:11;100155.83;;;6.54;41.71
56992;BME280;42885;49.754;18.636;2022-12-18T12:21:20;100165.05;;;6.46;42.82
56992;BME280;42885;49.754;18.636;2022-12-18T12:27:05;100169.52;;;6.99;41.77
56992;BME280;42885;49.754;18.636;2022-12-18T12:35:32;100172.16;;;5.91;45.47
56992;BME280;42885;49.754;18.636;2022-12-18T12:40:39;100174.33;;;3.85;48.93
56992;BME280;42885;49.754;18.636;2022-12-18T12:43:22;100183.29;;;4.18;50.21
56992;BME280;42885;49.754;18.636;2022-12-18T12:45:56;100182.98;;;3.73;50.76
56992;BME280;42885;49.754;18.636;2022-12-18T12:48:42;100183.38;;;3.83;52.08
56992;BME280;42885;49.754;18.636;2022-12-18T12:51:13;100189.03;;;3.16;51.64
56992;BME280;42885;49.754;18.636;2022-12-18T12:53:42;100195.35;;;2.47;56.43
56992;BME280;42885;49.754;18.636;2022-12-18T12:56:16;100179.52;;;3.87;54.57
56992;BME280;42885;49.754;18.636;2022-12-18T13:01:49;100184.73;;;3.62;54.57
56992;BME280;42885;49.754;18.636;2022-12-18T13:04:30;100185.17;;;3.53;57.48
56992;BME280;42885;49.754;18.636;2022-12-18T13:09:33;100187.70;;;2.83;54.56
56992;BME280;42885;49.754;18.636;2022-12-18T13:12:09;100184.72;;;3.06;56.65
56992;BME280;42885;49.754;18.636;2022-12-18T13:15:11;100189.73;;;2.42;58.19
56992;BME280;42885;49.754;18.636;2022-12-18T13:17:30;100194.09;;;2.54;57.19
56992;BME280;42885;49.754;18.636;2022-12-18T13:20:11;100200.53;;;2.52;59.30
56992;BME280;42885;49.754;18.636;2022-12-18T13:22:47;100198.48;;;2.92;57.23
56992;BME280;42885;49.754;18.636;2022-12-18T13:25:29;100202.52;;;2.15;57.59
56992;BME280;42885;49.754;18.636;2022-12-18T13:28:07;100201.12;;;1.98;62.20
56992;BME280;42885;49.754;18.636;2022-12-18T13:30:55;100195.59;;;2.05;60.65
56992;BME280;42885;49.754;18.636;2022-12-18T13:36:12;100197.40;;;2.25;63.34
56992;BME280;42885;49.754;18.636;2022-12-18T13:38:42;100192.43;;;1.79;62.95
56992;BME280;42885;49.754;18.636;2022-12-18T13:43:53;100193.73;;;1.82;63.74
56992;BME280;42885;49.754;18.636;2022-12-18T13:46:40;100198.24;;;1.53;64.37
56992;BME280;42885;49.754;18.636;2022-12-18T13:51:50;100197.94;;;1.66;63.38
56992;BME280;42885;49.754;18.636;2022-12-18T13:54:40;100189.18;;;2.14;64.17
56992;BME280;42885;49.754;18.636;2022-12-18T13:57:30;100194.84;;;1.54;63.21
56992;BME280;42885;49.754;18.636;2022-12-18T14:02:52;100208.36;;;0.10;72.29
56992;BME280;42885;49.754;18.636;2022-12-18T14:05:25;100208.92;;;-0.42;75.69
56992;BME280;42885;49.754;18.636;2022-12-18T14:08:00;100211.48;;;-0.94;80.58
56992;BME280;42885;49.754;18.636;2022-12-18T14:10:31;100215.30;;;-1.19;84.92
56992;BME280;42885;49.754;18.636;2022-12-18T14:13:08;100216.34;;;-0.86;89.50
56992;BME280;42885;49.754;18.636;2022-12-18T14:15:43;100209.47;;;-0.87;88.44
56992;BME280;42885;49.754;18.636;2022-12-18T14:21:26;100208.95;;;-1.15;90.53
56992;BME280;42885;49.754;18.636;2022-12-18T14:24:18;100213.34;;;-1.09;90.96
56992;BME280;42885;49.754;18.636;2022-12-18T14:26:50;100222.88;;;-1.27;91.76
56992;BME280;42885;49.754;18.636;2022-12-18T14:29:27;100219.92;;;-1.46;92.13